Time;durP1;ratioP1;P1;durP2;ratioP2;P2;SDS_P1;SDS_P2;PMS_P1;PMS_P2;Temp;Humidity;BMP_temperature;BMP_pressure;BME280_temperature;BME280_humidity;BME280_pressure;Samples;Min_cycle;Max_cycle;Signal;HPM_P1;HPM_P2
2021/04/20 00:01:59;;;;;;;42.20;32.23;;;;;;;4.91;82.25;100086.11;1667231;86;21126;-81
2021/04/20 00:04:25;;;;;;;45.88;31.10;;;;;;;4.88;82.25;100082.35;1671198;86;21331;-81
2021/04/20 00:06:51;;;;;;;47.08;32.00;;;;;;;4.85;82.34;100080.37;1670940;85;21448;-81
2021/04/20 00:09:17;;;;;;;46.88;32.35;;;;;;;4.84;82.29;100082.14;1671331;86;21665;-81
2021/04/20 00:11:43;;;;;;;43.87;32.17;;;;;;;4.83;82.25;100084.35;1686679;85;21530;-81
2021/04/20 00:14:12;;;;;;;44.60;32.90;;;;;;;4.82;82.24;100089.67;1689580;85;21200;-81
2021/04/20 00:16:38;;;;;;;45.25;33.33;;;;;;;4.78;82.46;100089.00;1689522;85;21162;-81
2021/04/20 00:19:07;;;;;;;48.83;32.48;;;;;;;4.75;82.56;100087.84;1689282;85;21659;-81
2021/04/20 00:21:33;;;;;;;43.55;32.17;;;;;;;4.72;82.48;100085.39;1682598;85;21292;-81
2021/04/20 00:23:59;;;;;;;46.25;32.33;;;;;;;4.68;82.50;100090.41;1617686;89;21196;-81
2021/04/20 00:26:25;;;;;;;45.05;30.10;;;;;;;4.67;82.54;100092.17;1617808;88;21615;-81
2021/04/20 00:28:51;;;;;;;44.77;33.45;;;;;;;4.66;82.44;100099.61;1617706;89;21232;-81
2021/04/20 00:31:17;;;;;;;53.28;34.23;;;;;;;4.65;82.36;100097.94;1618045;88;21119;-81
2021/04/20 00:33:43;;;;;;;49.23;34.25;;;;;;;4.62;82.54;100093.33;1618006;88;21111;-81
2021/04/20 00:36:10;;;;;;;44.88;31.73;;;;;;;4.59;82.55;100096.94;1618759;88;21191;-81
2021/04/20 00:38:37;;;;;;;42.15;29.77;;;;;;;4.52;82.55;100092.95;1619175;88;21153;-81
2021/04/20 00:41:10;;;;;;;46.88;32.58;;;;;;;4.51;82.68;100094.32;1618416;88;21342;-81
2021/04/20 00:43:43;;;;;;;46.92;32.65;;;;;;;4.50;84.29;100090.88;1617829;89;21650;-81
2021/04/20 00:46:13;;;;;;;45.83;32.45;;;;;;;4.55;84.80;100091.50;1618106;89;22256;-81
2021/04/20 00:48:40;;;;;;;41.42;29.40;;;;;;;4.59;85.47;100089.09;1618410;88;21177;-81
2021/04/20 00:51:06;;;;;;;44.23;30.02;;;;;;;4.65;85.51;100087.48;1617844;88;21230;-82
2021/04/20 00:53:33;;;;;;;45.00;31.50;;;;;;;4.70;85.90;100087.23;1616200;89;21186;-82
2021/04/20 00:56:00;;;;;;;41.37;30.12;;;;;;;4.74;86.37;100083.55;1615280;88;21296;-82
2021/04/20 00:58:26;;;;;;;38.95;30.50;;;;;;;4.79;86.11;100078.07;1614907;89;21214;-82
2021/04/20 01:00:53;;;;;;;39.23;29.70;;;;;;;4.82;86.20;100084.45;1604035;89;21207;-82
2021/04/20 01:03:19;;;;;;;43.00;28.98;;;;;;;4.87;86.93;100079.80;1588804;90;21177;-82
2021/04/20 01:05:47;;;;;;;37.95;28.77;;;;;;;4.92;86.61;100083.03;1588682;90;21478;-81
2021/04/20 01:08:16;;;;;;;38.55;29.02;;;;;;;4.95;86.85;100086.80;1587037;90;21169;-81
2021/04/20 01:10:47;;;;;;;37.17;28.30;;;;;;;4.97;86.22;100082.34;1615580;87;21185;-81
2021/04/20 01:13:14;;;;;;;38.28;29.40;;;;;;;4.99;86.15;100083.55;1621879;88;21163;-82
2021/04/20 01:15:47;;;;;;;41.63;27.65;;;;;;;4.98;86.61;100082.71;1623681;87;21158;-82
2021/04/20 01:18:20;;;;;;;43.85;29.70;;;;;;;5.00;86.33;100078.25;1623196;87;21198;-82
2021/04/20 01:20:57;;;;;;;34.23;26.27;;;;;;;5.00;86.65;100074.77;1642458;87;21571;-83
2021/04/20 01:24:02;;;;;;;39.70;28.10;;;;;;;4.98;86.30;100072.25;1643819;87;21208;-83
2021/04/20 01:26:31;;;;;;;36.48;25.48;;;;;;;4.97;86.11;100065.34;1632546;87;21166;-81
2021/04/20 01:28:58;;;;;;;38.48;28.12;;;;;;;4.98;86.47;100069.64;1622446;88;21605;-81
2021/04/20 01:31:28;;;;;;;35.40;25.12;;;;;;;4.98;86.49;100070.94;1623766;87;21127;-81
2021/04/20 01:33:54;;;;;;;42.90;28.55;;;;;;;4.99;86.19;100071.31;1622181;88;21220;-81
2021/04/20 01:36:24;;;;;;;34.35;24.75;;;;;;;4.99;86.13;100072.62;1625112;87;21684;-81
2021/04/20 01:38:52;;;;;;;35.23;27.52;;;;;;;4.99;85.70;100072.62;1622140;88;21174;-81
2021/04/20 01:41:20;;;;;;;34.08;26.42;;;;;;;4.97;85.90;100081.47;1622536;87;21174;-81
2021/04/20 01:43:47;;;;;;;34.08;24.92;;;;;;;4.93;85.77;100081.63;1622076;88;21220;-81
2021/04/20 01:46:15;;;;;;;33.70;24.47;;;;;;;4.91;85.40;100081.35;1622861;87;21247;-81
2021/04/20 01:48:42;;;;;;;31.50;24.75;;;;;;;4.87;85.22;100077.19;1622149;88;21146;-81
2021/04/20 01:51:08;;;;;;;34.75;25.00;;;;;;;4.82;85.22;100080.06;1632129;86;21726;-81
2021/04/20 01:53:34;;;;;;;34.38;25.48;;;;;;;4.80;85.50;100084.98;1650286;87;21118;-81
2021/04/20 01:56:04;;;;;;;39.15;26.33;;;;;;;4.77;85.17;100082.09;1649695;87;21265;-81
2021/04/20 01:58:32;;;;;;;30.43;23.18;;;;;;;4.71;85.09;100078.48;1650006;87;21188;-83
2021/04/20 02:01:01;;;;;;;32.65;25.08;;;;;;;4.66;84.91;100081.31;1650347;87;21541;-83
2021/04/20 02:03:28;;;;;;;34.08;24.25;;;;;;;4.61;84.67;100075.50;1643515;86;21169;-83
2021/04/20 02:05:55;;;;;;;32.45;24.00;;;;;;;4.56;84.67;100077.49;1650043;87;21174;-83
2021/04/20 02:08:22;;;;;;;30.08;24.27;;;;;;;4.52;84.74;100078.58;1650017;87;21579;-83
2021/04/20 02:10:48;;;;;;;31.93;24.05;;;;;;;4.46;84.53;100075.81;1650175;87;21696;-83
2021/04/20 02:13:15;;;;;;;29.12;21.73;;;;;;;4.42;84.51;100073.45;1649994;87;21171;-83
2021/04/20 02:15:42;;;;;;;31.45;21.80;;;;;;;4.37;84.58;100071.05;1649991;87;21158;-81
2021/04/20 02:18:09;;;;;;;31.25;22.70;;;;;;;4.34;84.54;100066.45;1651147;87;21181;-81
2021/04/20 02:20:38;;;;;;;34.25;23.47;;;;;;;4.30;84.58;100072.30;1644394;87;21156;-81
2021/04/20 02:23:04;;;;;;;29.80;21.45;;;;;;;4.28;84.51;100071.98;1672819;86;22114;-81
2021/04/20 02:25:31;;;;;;;34.27;22.73;;;;;;;4.26;84.60;100068.63;1644431;87;21164;-81
2021/04/20 02:27:58;;;;;;;33.80;25.05;;;;;;;4.22;84.40;100066.63;1652127;86;21598;-81
2021/04/20 02:30:25;;;;;;;28.17;20.70;;;;;;;4.16;84.47;100073.00;1669612;86;21123;-81
2021/04/20 02:32:52;;;;;;;33.50;22.45;;;;;;;4.14;84.34;100072.21;1670789;86;21249;-81
2021/04/20 02:35:19;;;;;;;28.00;20.77;;;;;;;4.08;84.36;100067.76;1670497;86;21169;-81
2021/04/20 02:37:47;;;;;;;29.25;20.60;;;;;;;4.06;84.54;100065.23;1669654;86;21186;-81
2021/04/20 02:40:26;;;;;;;26.57;21.57;;;;;;;4.06;84.48;100069.16;1670393;86;21288;-81
2021/04/20 02:42:53;;;;;;;27.80;20.92;;;;;;;4.02;84.25;100061.09;1673635;85;21529;-82
2021/04/20 02:45:26;;;;;;;29.57;22.17;;;;;;;3.95;84.24;100071.47;1673823;86;21167;-82
2021/04/20 02:47:55;;;;;;;25.02;20.17;;;;;;;3.90;84.45;100065.61;1674755;86;21180;-82
2021/04/20 02:50:25;;;;;;;25.55;20.02;;;;;;;3.85;84.87;100061.94;1672676;86;21128;-82
2021/04/20 02:52:55;;;;;;;26.35;19.77;;;;;;;3.82;85.08;100063.39;1646352;87;21579;-82
2021/04/20 02:55:22;;;;;;;26.35;19.42;;;;;;;3.81;84.90;100056.92;1660417;85;21134;-81
2021/04/20 02:57:55;;;;;;;26.75;21.15;;;;;;;3.78;84.79;100058.38;1658740;85;21113;-81
2021/04/20 03:00:24;;;;;;;31.62;22.95;;;;;;;3.76;84.76;100061.91;1650434;87;21326;-81
2021/04/20 03:03:01;;;;;;;38.67;26.87;;;;;;;3.74;85.36;100055.91;1636204;87;21108;-81
2021/04/20 03:05:29;;;;;;;35.95;25.77;;;;;;;3.77;86.15;100061.45;1645095;87;21175;-81
2021/04/20 03:07:55;;;;;;;40.80;29.18;;;;;;;3.80;86.46;100057.84;1646201;87;21122;-81
2021/04/20 03:10:23;;;;;;;36.05;25.62;;;;;;;3.82;86.61;100054.25;1646565;87;21608;-81
2021/04/20 03:12:51;;;;;;;42.15;28.07;;;;;;;3.86;86.82;100053.17;1644939;87;21185;-81
2021/04/20 03:15:18;;;;;;;44.88;29.23;;;;;;;3.89;86.90;100055.63;1645304;87;21145;-81
2021/04/20 03:17:48;;;;;;;35.95;26.77;;;;;;;3.90;87.10;100057.78;1645174;87;21603;-81
2021/04/20 03:20:18;;;;;;;33.88;25.20;;;;;;;3.93;87.31;100054.55;1645304;87;21277;-81
2021/04/20 03:22:45;;;;;;;34.80;25.35;;;;;;;3.94;87.37;100053.63;1644958;87;21188;-81
2021/04/20 03:25:26;;;;;;;35.52;24.57;;;;;;;3.96;87.70;100052.27;1645199;87;21210;-81
2021/04/20 03:27:55;;;;;;;33.23;24.25;;;;;;;3.98;88.18;100055.62;1645259;87;21138;-81
2021/04/20 03:30:29;;;;;;;30.25;21.73;;;;;;;4.02;87.92;100055.03;1646182;87;21142;-81
2021/04/20 03:33:13;;;;;;;29.35;21.27;;;;;;;4.04;88.24;100057.09;1644593;86;21117;-81
2021/04/20 03:36:14;;;;;;;31.27;22.87;;;;;;;4.07;88.44;100058.24;1644953;87;21159;-81
2021/04/20 03:39:04;;;;;;;31.42;21.87;;;;;;;4.10;88.58;100057.63;1615216;87;21110;-82
2021/04/20 03:41:42;;;;;;;35.73;21.95;;;;;;;4.13;88.49;100053.56;1645170;87;21169;-82
2021/04/20 03:44:12;;;;;;;28.42;20.95;;;;;;;4.15;88.49;100058.25;1645151;87;22363;-83
2021/04/20 03:46:43;;;;;;;29.00;20.15;;;;;;;4.16;88.28;100048.19;1646694;86;21291;-83
2021/04/20 03:49:24;;;;;;;27.82;20.17;;;;;;;4.18;88.21;100054.66;1632035;87;21516;-83
2021/04/20 03:51:54;;;;;;;32.28;19.65;;;;;;;4.17;88.10;100049.02;1645088;87;21538;-81
2021/04/20 03:54:23;;;;;;;27.30;19.55;;;;;;;4.15;88.18;100054.34;1645102;87;21135;-82
2021/04/20 03:56:52;;;;;;;23.98;18.15;;;;;;;4.13;88.01;100051.41;1646059;87;21154;-82
2021/04/20 03:59:21;;;;;;;28.50;18.92;;;;;;;4.11;88.14;100064.53;1646427;87;21067;-82
2021/04/20 04:01:50;;;;;;;28.02;19.00;;;;;;;4.09;88.25;100063.78;1645308;87;21565;-82
2021/04/20 04:04:25;;;;;;;24.07;18.90;;;;;;;4.06;88.31;100066.55;1628797;87;21134;-82
2021/04/20 04:06:53;;;;;;;25.88;17.80;;;;;;;4.03;88.12;100064.55;1618371;87;21131;-83
2021/04/20 04:09:20;;;;;;;23.55;17.80;;;;;;;3.99;87.75;100067.77;1646491;87;21142;-82
2021/04/20 04:11:53;;;;;;;29.82;17.62;;;;;;;3.97;87.71;100065.69;1646450;87;21513;-83
2021/04/20 04:14:24;;;;;;;24.85;18.37;;;;;;;3.93;87.69;100079.36;1646302;86;21120;-83
2021/04/20 04:16:51;;;;;;;28.25;18.73;;;;;;;3.89;87.62;100076.52;1645479;87;21561;-83
2021/04/20 04:19:20;;;;;;;22.45;17.95;;;;;;;3.89;87.73;100079.59;1645123;87;21667;-83
2021/04/20 04:21:51;;;;;;;21.50;16.48;;;;;;;3.89;87.71;100078.29;1645919;87;21180;-83
2021/04/20 04:24:18;;;;;;;23.55;17.10;;;;;;;3.89;87.82;100077.83;1645390;86;21170;-81
2021/04/20 04:26:55;;;;;;;24.02;17.80;;;;;;;3.89;87.69;100083.51;1645287;87;21087;-81
2021/04/20 04:29:25;;;;;;;23.15;17.52;;;;;;;3.89;87.70;100082.20;1646429;87;21099;-81
2021/04/20 04:31:52;;;;;;;29.12;18.82;;;;;;;3.89;87.85;100080.44;1646295;87;21158;-81
2021/04/20 04:34:19;;;;;;;20.75;16.25;;;;;;;3.86;87.80;100088.41;1646692;87;21307;-81
2021/04/20 04:36:46;;;;;;;23.62;16.50;;;;;;;3.86;87.76;100090.18;1646592;87;21126;-82
2021/04/20 04:39:15;;;;;;;24.50;17.25;;;;;;;3.86;87.53;100087.58;1646704;87;21117;-82
2021/04/20 04:41:44;;;;;;;23.57;17.60;;;;;;;3.87;87.86;100091.86;1646412;87;21156;-82
2021/04/20 04:44:13;;;;;;;22.17;17.77;;;;;;;3.85;87.90;100089.34;1646718;87;21149;-82
2021/04/20 04:46:44;;;;;;;22.32;18.35;;;;;;;3.89;88.22;100087.42;1644930;85;21200;-82
2021/04/20 04:49:11;;;;;;;32.38;20.08;;;;;;;3.87;88.00;100092.70;1645233;87;21155;-82
2021/04/20 04:51:39;;;;;;;52.27;30.25;;;;;;;3.90;88.16;100085.19;1615267;85;21226;-81
2021/04/20 04:54:13;;;;;;;83.30;38.30;;;;;;;3.92;88.06;100095.11;1645043;87;21102;-81
2021/04/20 04:56:44;;;;;;;65.60;35.03;;;;;;;3.92;88.12;100088.12;1635561;87;21162;-82
2021/04/20 04:59:18;;;;;;;107.80;50.03;;;;;;;3.92;88.05;100088.12;1645300;87;21126;-82
2021/04/20 05:01:43;;;;;;;82.72;39.58;;;;;;;3.93;88.28;100091.11;1644891;87;21137;-82
2021/04/20 05:04:12;;;;;;;25.27;18.70;;;;;;;3.93;88.32;100098.94;1645189;87;21198;-82
2021/04/20 05:06:49;;;;;;;22.10;18.27;;;;;;;3.95;88.34;100092.35;1645527;87;21140;-82
2021/04/20 05:09:18;;;;;;;16.95;14.83;;;;;;;3.96;88.39;100096.64;1646495;87;21163;-81
2021/04/20 05:11:46;;;;;;;21.33;16.50;;;;;;;3.96;88.26;100101.86;1646340;87;21263;-81
2021/04/20 05:14:15;;;;;;;14.40;12.90;;;;;;;3.96;88.55;100094.87;1646548;87;21114;-81
2021/04/20 05:16:53;;;;;;;17.35;13.22;;;;;;;3.99;88.67;100097.80;1645536;87;21102;-81
2021/04/20 05:19:31;;;;;;;18.90;14.30;;;;;;;3.99;88.72;100085.59;1648968;85;21208;-81
2021/04/20 05:21:59;;;;;;;19.30;13.48;;;;;;;4.00;89.02;100080.73;1645873;87;21115;-81
2021/04/20 05:24:27;;;;;;;19.42;15.28;;;;;;;4.05;89.17;100088.36;1616598;87;21138;-81
2021/04/20 05:26:54;;;;;;;18.55;14.65;;;;;;;4.07;89.12;100079.97;1645128;87;21183;-81
2021/04/20 05:29:20;;;;;;;18.32;15.28;;;;;;;4.10;89.11;100076.38;1653908;85;21158;-81
2021/04/20 05:31:46;;;;;;;19.95;15.00;;;;;;;4.15;89.74;100086.98;1658163;85;21183;-81
2021/04/20 05:34:12;;;;;;;18.82;13.70;;;;;;;4.20;89.89;100090.19;1651245;86;21110;-81
2021/04/20 05:36:39;;;;;;;20.75;15.18;;;;;;;4.25;90.26;100092.59;1651249;86;21184;-81
2021/04/20 05:39:11;;;;;;;19.30;14.70;;;;;;;4.29;90.27;100091.98;1650993;87;21204;-81
2021/04/20 05:41:39;;;;;;;20.15;15.93;;;;;;;4.30;90.37;100089.27;1651869;86;21162;-81
2021/04/20 05:44:09;;;;;;;18.12;15.18;;;;;;;4.34;90.58;100084.27;1652683;87;21252;-81
2021/04/20 05:46:41;;;;;;;21.87;16.07;;;;;;;4.38;90.75;100082.38;1651429;87;21122;-81
2021/04/20 05:49:11;;;;;;;23.27;17.40;;;;;;;4.42;90.72;100086.52;1650511;87;21342;-81
2021/04/20 05:51:47;;;;;;;24.70;16.62;;;;;;;4.47;90.86;100089.72;1651295;85;21174;-83
2021/04/20 05:54:13;;;;;;;25.15;18.37;;;;;;;4.53;91.14;100093.80;1574402;87;21566;-83
2021/04/20 05:56:41;;;;;;;24.95;18.45;;;;;;;4.56;91.27;100088.41;1668459;85;21301;-83
2021/04/20 05:59:08;;;;;;;27.77;19.55;;;;;;;4.62;91.22;100092.02;1668641;85;21320;-81
2021/04/20 06:01:43;;;;;;;26.05;18.30;;;;;;;4.70;91.71;100096.38;1671123;85;21146;-81
2021/04/20 06:04:10;;;;;;;24.45;18.50;;;;;;;4.75;91.53;100092.23;1673009;86;21200;-81
2021/04/20 06:06:40;;;;;;;20.77;17.05;;;;;;;4.82;91.63;100104.05;1670244;86;21227;-81
2021/04/20 06:09:09;;;;;;;21.23;18.25;;;;;;;4.88;91.66;100102.43;1675432;84;21182;-81
2021/04/20 06:11:38;;;;;;;26.33;19.73;;;;;;;4.96;91.74;100105.94;1646600;85;21541;-82
2021/04/20 06:14:04;;;;;;;28.25;20.45;;;;;;;5.03;91.98;100098.98;1652853;86;21161;-81
2021/04/20 06:16:31;;;;;;;29.37;19.67;;;;;;;5.10;91.98;100103.42;1627873;87;21101;-81
2021/04/20 06:18:58;;;;;;;28.73;18.98;;;;;;;5.14;91.88;100101.89;1616437;89;21378;-81
2021/04/20 06:21:26;;;;;;;26.23;19.57;;;;;;;5.20;91.92;100104.64;1615597;89;21502;-81
2021/04/20 06:23:52;;;;;;;27.50;21.12;;;;;;;5.28;92.13;100098.98;1642271;87;21621;-81
2021/04/20 06:26:19;;;;;;;28.10;19.60;;;;;;;5.37;92.35;100098.50;1606058;87;21174;-81
2021/04/20 06:28:45;;;;;;;32.33;22.80;;;;;;;5.45;92.49;100096.29;1680189;84;21298;-81
2021/04/20 06:31:14;;;;;;;27.50;21.60;;;;;;;5.53;92.31;100098.51;1678629;84;21599;-81
2021/04/20 06:33:40;;;;;;;35.40;23.42;;;;;;;5.62;92.57;100104.05;1604844;87;21208;-81
2021/04/20 06:36:09;;;;;;;38.45;24.77;;;;;;;5.70;92.64;100110.66;1621816;87;21195;-81
2021/04/20 06:38:38;;;;;;;34.60;23.73;;;;;;;5.76;92.73;100108.53;1648401;85;21145;-81
2021/04/20 06:41:08;;;;;;;32.95;22.50;;;;;;;5.85;92.56;100112.39;1627460;87;21176;-81
2021/04/20 06:44:12;;;;;;;31.57;22.58;;;;;;;5.91;92.66;100111.21;1653273;85;21339;-80
2021/04/20 06:46:41;;;;;;;;;;;;;;;5.97;92.72;100105.66;1622975;85;21616;-82
2021/04/20 06:49:34;;;;;;;32.33;22.93;;;;;;;6.09;92.98;100104.50;1674985;84;20297;-82
2021/04/20 06:52:14;;;;;;;34.85;24.95;;;;;;;6.17;92.87;100108.45;1676394;84;21157;-81
2021/04/20 06:55:05;;;;;;;34.83;24.98;;;;;;;6.26;92.83;100104.83;1681874;85;21306;-81
2021/04/20 06:57:42;;;;;;;32.63;25.00;;;;;;;6.36;93.03;100110.84;1678274;85;21111;-81
2021/04/20 07:00:25;;;;;;;36.95;27.73;;;;;;;6.44;92.95;100101.58;1661514;85;21611;-81
2021/04/20 07:03:17;;;;;;;32.30;27.13;;;;;;;6.53;92.80;100097.58;1686204;84;21122;-81
2021/04/20 07:05:52;;;;;;;38.25;25.50;;;;;;;6.63;92.92;100101.81;1682479;84;21162;-80
2021/04/20 07:08:45;;;;;;;38.73;26.80;;;;;;;6.72;93.10;100106.52;1696321;83;21182;-80
2021/04/20 07:11:14;;;;;;;34.53;24.57;;;;;;;6.79;93.13;100107.35;1676637;85;21142;-81
2021/04/20 07:13:49;;;;;;;35.90;27.17;;;;;;;6.89;92.99;100105.02;1629141;86;21303;-81
2021/04/20 07:16:46;;;;;;;34.95;27.32;;;;;;;6.94;93.08;100108.22;1659945;86;21323;-81
2021/04/20 07:19:33;;;;;;;36.80;27.80;;;;;;;7.02;93.07;100103.80;1650526;87;21202;-81
2021/04/20 07:22:45;;;;;;;36.10;26.65;;;;;;;7.10;92.93;100105.95;1651993;87;21110;-80
2021/04/20 07:25:51;;;;;;;39.60;28.87;;;;;;;7.19;93.42;100100.97;1652648;86;21325;-81
2021/04/20 07:29:07;;;;;;;39.73;29.63;;;;;;;7.33;93.69;100096.17;1651559;86;21209;-81
2021/04/20 07:32:25;;;;;;;39.88;29.23;;;;;;;7.43;93.64;100094.65;1627120;86;21176;-81
2021/04/20 07:35:14;;;;;;;42.15;28.80;;;;;;;7.56;93.26;100099.13;1605259;88;21173;-81
2021/04/20 07:37:56;;;;;;;39.15;30.05;;;;;;;7.66;93.55;100095.81;1652506;85;21196;-81
2021/04/20 07:40:34;;;;;;;35.87;28.07;;;;;;;7.75;93.27;100097.85;1654475;85;21186;-80
2021/04/20 07:43:25;;;;;;;40.28;28.77;;;;;;;7.82;93.12;100089.11;1650347;87;21182;-81
2021/04/20 07:46:02;;;;;;;41.88;31.55;;;;;;;7.91;93.14;100090.30;1650531;87;21188;-81
2021/04/20 07:48:36;;;;;;;45.78;31.95;;;;;;;7.97;92.93;100088.12;1650270;87;21144;-81
2021/04/20 07:51:14;;;;;;;41.00;31.20;;;;;;;8.04;92.93;100091.66;1638165;87;21513;-81
2021/04/20 07:53:54;;;;;;;36.08;29.15;;;;;;;8.08;92.75;100090.03;1647739;87;21150;-81
2021/04/20 07:56:26;;;;;;;39.05;31.25;;;;;;;8.17;92.97;100091.22;1648093;87;21160;-81
2021/04/20 07:58:55;;;;;;;42.90;30.30;;;;;;;8.28;92.92;100091.33;1660579;85;21158;-81
2021/04/20 08:01:36;;;;;;;42.90;31.37;;;;;;;8.40;93.19;100082.67;1658246;86;21166;-81
2021/04/20 08:04:16;;;;;;;41.40;32.30;;;;;;;8.56;93.21;100083.79;1660976;86;21184;-81
2021/04/20 08:06:46;;;;;;;44.30;32.95;;;;;;;8.70;92.94;100089.42;1650365;87;21147;-81
2021/04/20 08:09:24;;;;;;;43.05;31.82;;;;;;;8.85;92.87;100084.87;1657259;85;21136;-81
2021/04/20 08:12:02;;;;;;;45.35;33.23;;;;;;;8.95;92.86;100081.13;1670379;85;21181;-81
2021/04/20 08:15:04;;;;;;;46.13;34.70;;;;;;;9.08;92.68;100084.59;1645563;85;21308;-81
2021/04/20 08:17:50;;;;;;;43.42;32.33;;;;;;;9.23;92.97;100084.00;1656246;85;21322;-80
2021/04/20 08:20:23;;;;;;;39.13;30.08;;;;;;;9.40;92.66;100092.37;1651046;85;21174;-80
2021/04/20 08:22:53;;;;;;;40.90;29.55;;;;;;;9.52;91.64;100089.83;1653165;85;21162;-80
2021/04/20 08:25:42;;;;;;;37.15;29.37;;;;;;;9.59;91.26;100096.33;1650900;85;21118;-80
2021/04/20 08:28:45;;;;;;;40.10;29.82;;;;;;;9.64;91.06;100091.58;1622440;87;21178;-80
2021/04/20 08:31:20;;;;;;;35.98;28.15;;;;;;;9.77;91.33;100094.14;1643380;85;21163;-80
2021/04/20 08:33:57;;;;;;;37.20;27.60;;;;;;;9.88;91.28;100098.66;1640157;86;21195;-80
2021/04/20 08:36:53;;;;;;;37.05;29.77;;;;;;;9.96;91.24;100091.01;1639465;86;21557;-80
2021/04/20 08:39:59;;;;;;;32.75;26.73;;;;;;;10.07;90.72;100092.39;1623814;86;21201;-80
2021/04/20 08:43:00;;;;;;;34.92;28.10;;;;;;;10.17;90.25;100093.39;1614653;89;21180;-81
2021/04/20 08:45:56;;;;;;;34.60;26.82;;;;;;;10.23;89.46;100094.25;1638360;87;21190;-81
2021/04/20 08:48:40;;;;;;;36.08;28.15;;;;;;;10.31;89.60;100095.85;1653202;86;21697;-80
2021/04/20 08:51:17;;;;;;;35.83;27.85;;;;;;;10.48;90.85;100090.62;1651363;86;22347;-81
2021/04/20 08:54:19;;;;;;;37.85;28.35;;;;;;;10.65;90.36;100091.13;1634892;87;21353;-81
2021/04/20 08:57:26;;;;;;;35.15;26.57;;;;;;;10.75;89.95;100095.58;1620357;87;21201;-81
2021/04/20 09:00:32;;;;;;;30.88;24.87;;;;;;;10.86;89.35;100086.86;1641475;86;21309;-81
2021/04/20 09:03:26;;;;;;;33.38;27.45;;;;;;;10.98;88.84;100088.52;1632171;87;21343;-82
2021/04/20 09:05:59;;;;;;;34.23;26.42;;;;;;;11.09;89.15;100085.06;1639297;86;21206;-82
2021/04/20 09:08:34;;;;;;;;;;;;;;;11.18;89.50;100084.80;1644964;86;21196;-82
2021/04/20 09:11:27;;;;;;;30.20;24.52;;;;;;;11.28;89.22;100076.02;1638529;86;20307;-82
2021/04/20 09:14:28;;;;;;;31.07;24.60;;;;;;;11.37;88.72;100082.86;1634951;87;21195;-82
2021/04/20 09:17:11;;;;;;;28.25;23.12;;;;;;;11.47;88.03;100081.16;1641038;86;21640;-82
2021/04/20 09:19:56;;;;;;;30.90;24.02;;;;;;;11.60;87.37;100084.50;1638552;86;21669;-82
2021/04/20 09:22:50;;;;;;;37.00;28.38;;;;;;;11.65;86.62;100081.02;1640318;86;21397;-80
2021/04/20 09:25:51;;;;;;;30.08;25.05;;;;;;;11.75;86.26;100073.18;1639206;86;21174;-80
2021/04/20 09:28:29;;;;;;;28.55;22.85;;;;;;;11.89;87.08;100068.11;1642145;86;21159;-81
2021/04/20 09:31:18;;;;;;;31.25;24.43;;;;;;;12.04;86.85;100065.50;1639519;86;21183;-81
2021/04/20 09:33:53;;;;;;;32.38;24.67;;;;;;;12.22;86.99;100066.28;1639328;86;21170;-80
2021/04/20 09:36:22;;;;;;;28.40;24.40;;;;;;;12.37;86.45;100068.95;1655573;86;21558;-81
2021/04/20 09:38:50;;;;;;;29.75;25.12;;;;;;;12.49;86.30;100059.98;1648896;86;21301;-80
2021/04/20 09:41:35;;;;;;;28.87;25.70;;;;;;;12.58;85.10;100061.86;1650783;86;21684;-80
2021/04/20 09:44:26;;;;;;;27.25;21.70;;;;;;;12.72;86.58;100055.86;1640309;86;21167;-81
2021/04/20 09:47:10;;;;;;;26.85;20.85;;;;;;;12.88;84.84;100060.20;1646387;86;21171;-80
2021/04/20 09:49:59;;;;;;;26.23;22.73;;;;;;;12.98;84.99;100056.27;1649472;86;21143;-81
2021/04/20 09:52:31;;;;;;;29.05;22.82;;;;;;;13.06;85.07;100054.64;1639388;86;21202;-80
2021/04/20 09:55:06;;;;;;;28.95;23.05;;;;;;;13.20;84.53;100057.89;1638819;87;21182;-80
2021/04/20 09:57:37;;;;;;;28.77;22.98;;;;;;;13.30;83.64;100049.52;1652659;86;21307;-80
2021/04/20 10:00:13;;;;;;;23.87;20.80;;;;;;;13.37;83.41;100050.64;1641742;86;21139;-80
2021/04/20 10:03:28;;;;;;;26.93;22.32;;;;;;;13.46;83.31;100049.83;1620704;87;21228;-80
2021/04/20 10:06:12;;;;;;;26.57;21.23;;;;;;;13.58;84.32;100046.06;1639207;86;21209;-80
2021/04/20 10:09:11;;;;;;;24.85;20.40;;;;;;;13.79;83.09;100043.31;1618147;86;21706;-81
2021/04/20 10:12:24;;;;;;;19.35;16.02;;;;;;;13.90;83.73;100042.33;1639609;86;21160;-80
2021/04/20 10:15:01;;;;;;;25.85;19.60;;;;;;;13.98;79.09;100027.86;1635317;86;21185;-80
2021/04/20 10:17:58;;;;;;;20.55;17.60;;;;;;;14.03;78.93;100032.27;1607148;86;21834;-80
2021/04/20 10:20:47;;;;;;;23.07;18.35;;;;;;;14.11;79.18;100026.74;1642465;86;21657;-80
2021/04/20 10:23:39;;;;;;;19.82;17.12;;;;;;;14.20;79.97;100016.12;1597368;86;21228;-80
2021/04/20 10:26:24;;;;;;;19.60;16.17;;;;;;;14.33;79.74;100017.14;1640718;86;21225;-83
2021/04/20 10:28:59;;;;;;;19.55;16.02;;;;;;;14.45;78.90;100018.66;1631937;86;21166;-83
2021/04/20 10:31:51;;;;;;;21.95;16.65;;;;;;;14.59;78.79;100025.36;1657495;85;21182;-83
2021/04/20 10:34:24;;;;;;;17.62;14.30;;;;;;;14.73;79.56;100014.75;1604066;87;21151;-83
2021/04/20 10:36:56;;;;;;;18.40;15.63;;;;;;;14.88;78.52;100021.27;1585150;88;21209;-83
2021/04/20 10:39:25;;;;;;;16.55;13.58;;;;;;;15.03;76.73;100014.97;1617831;87;21605;-83
2021/04/20 10:41:56;;;;;;;16.20;12.82;;;;;;;15.10;76.35;100006.74;1619333;87;21216;-83
2021/04/20 10:44:31;;;;;;;15.05;13.18;;;;;;;15.14;75.75;100007.31;1618774;87;21194;-84
2021/04/20 10:46:57;;;;;;;12.30;10.83;;;;;;;15.22;74.08;100008.72;1618425;87;21340;-83
2021/04/20 10:49:27;;;;;;;11.97;10.60;;;;;;;15.32;73.87;100001.52;1622910;87;21210;-83
2021/04/20 10:51:59;;;;;;;11.00;9.68;;;;;;;15.41;73.36;100005.94;1620165;87;21627;-84
2021/04/20 10:54:31;;;;;;;14.15;10.63;;;;;;;15.51;72.77;100001.05;1619535;87;21297;-83
2021/04/20 10:56:58;;;;;;;12.40;10.95;;;;;;;15.63;72.63;99997.16;1618741;87;21367;-84
2021/04/20 10:59:29;;;;;;;10.40;9.30;;;;;;;15.63;72.15;99989.19;1620512;87;21274;-84
2021/04/20 11:02:00;;;;;;;11.38;10.10;;;;;;;15.63;72.37;99984.73;1618459;87;21196;-84
2021/04/20 11:04:32;;;;;;;11.43;9.13;;;;;;;15.63;71.97;99982.07;1623396;86;21582;-85
2021/04/20 11:07:20;;;;;;;13.72;9.78;;;;;;;15.69;70.84;99969.99;1655702;86;21180;-84
2021/04/20 11:09:50;;;;;;;13.68;10.88;;;;;;;15.69;70.87;99969.99;1639947;86;21158;-84
2021/04/20 11:12:19;;;;;;;17.07;8.98;;;;;;;15.73;71.12;99967.86;1638212;86;21228;-84
2021/04/20 11:14:49;;;;;;;13.80;9.75;;;;;;;15.74;70.57;99965.56;1643382;86;21134;-84
2021/04/20 11:17:36;;;;;;;10.78;9.28;;;;;;;15.69;70.49;99971.33;1639744;86;21236;-85
2021/04/20 11:20:12;;;;;;;12.47;8.85;;;;;;;15.62;69.89;99971.07;1616084;86;21132;-84
2021/04/20 11:22:53;;;;;;;13.20;9.85;;;;;;;15.49;69.36;99963.47;1642806;86;21328;-84
2021/04/20 11:25:37;;;;;;;8.80;5.97;;;;;;;15.35;69.71;99965.33;1605358;86;21124;-85
2021/04/20 11:28:11;;;;;;;5.87;4.70;;;;;;;15.20;64.66;99978.31;1640370;86;21634;-82
2021/04/20 11:30:41;;;;;;;6.85;4.87;;;;;;;15.03;66.95;99977.77;1636500;86;21720;-83
2021/04/20 11:33:12;;;;;;;7.80;5.90;;;;;;;14.93;66.58;99969.02;1642383;86;21519;-83
2021/04/20 11:35:47;;;;;;;9.28;6.00;;;;;;;14.80;66.50;99961.39;1641949;86;21683;-83
2021/04/20 11:38:17;;;;;;;6.60;5.08;;;;;;;14.69;65.90;99961.59;1642386;86;21224;-84
2021/04/20 11:40:57;;;;;;;8.15;5.42;;;;;;;14.61;66.74;99962.80;1641865;85;21123;-84
2021/04/20 11:43:27;;;;;;;6.72;5.97;;;;;;;14.52;65.84;99965.86;1625826;85;21179;-85
2021/04/20 11:45:56;;;;;;;6.50;4.05;;;;;;;14.47;66.39;99968.06;1658939;85;21589;-81
2021/04/20 11:48:32;;;;;;;3.98;3.27;;;;;;;14.43;63.41;99970.17;1641759;85;21643;-81
2021/04/20 11:51:02;;;;;;;4.25;3.33;;;;;;;14.38;64.17;99967.60;1645423;85;21116;-80
2021/04/20 11:53:38;;;;;;;5.92;3.40;;;;;;;14.34;65.00;99965.73;1653354;85;21216;-80